25776 USTR-USTR
Flight info
| Callsign | 25776 |
|---|---|
| Flight time | N/A |
| Altitude | 2000 |
| Route | N0120A020 5721N06605E 5737N06622E 5728N06654E 5746N06641E 5757N06710E 5758N06634E 5813N06622E 5757N06611E 5757N06539E 5745N06604E 5728N06541E 5737N06621E 5720N06605E 5712N06520E 5711N06520E |
| Aircraft | MI8/L-V/N |
Departure
| Time | 2026-05-09 08:57 |
|---|---|
| Airport | Roshchino International Airport (USTR) |
Arrival
| Time | N/A |
|---|---|
| Airport | Roshchino International Airport (USTR) |
| Time | Latitude | Longitude | Altitude | Speed | Heading |
|---|---|---|---|---|---|
| 2026-05-09 08:51 | 57.18683 | 65.33591 | 337 ft | 0 kts | 224° |
| 2026-05-09 08:54 | 57.18671 | 65.33572 | 336 ft | 6 kts | 227° |
| 2026-05-09 08:55 | 57.18644 | 65.33546 | 345 ft | 3 kts | 229° |
| 2026-05-09 08:55 | 57.18629 | 65.33526 | 351 ft | 5 kts | 230° |
| 2026-05-09 08:55 | 57.18620 | 65.33480 | 412 ft | 2 kts | 260° |
| 2026-05-09 08:55 | 57.18636 | 65.33219 | 540 ft | 42 kts | 316° |
| 2026-05-09 08:56 | 57.18883 | 65.32725 | 725 ft | 64 kts | 323° |
| 2026-05-09 08:56 | 57.19403 | 65.32649 | 684 ft | 94 kts | 17° |
| 2026-05-09 08:56 | 57.19935 | 65.33611 | 670 ft | 123 kts | 60° |
| 2026-05-09 08:56 | 57.20066 | 65.35221 | 674 ft | 132 kts | 91° |
| 2026-05-09 08:57 | 57.20006 | 65.36943 | 672 ft | 136 kts | 88° |
| 2026-05-09 08:57 | 57.20286 | 65.38597 | 670 ft | 136 kts | 63° |
| 2026-05-09 08:57 | 57.20742 | 65.40121 | 843 ft | 134 kts | 60° |
| 2026-05-09 08:57 | 57.21199 | 65.41590 | 1216 ft | 128 kts | 60° |
| 2026-05-09 08:58 | 57.21625 | 65.42948 | 1597 ft | 115 kts | 60° |
| 2026-05-09 08:58 | 57.22012 | 65.44157 | 1841 ft | 103 kts | 59° |
| 2026-05-09 08:58 | 57.22373 | 65.45248 | 1925 ft | 97 kts | 59° |
| 2026-05-09 08:58 | 57.22733 | 65.46342 | 1964 ft | 104 kts | 57° |
| 2026-05-09 08:59 | 57.23130 | 65.47563 | 1968 ft | 121 kts | 58° |
| 2026-05-09 08:59 | 57.23579 | 65.48963 | 1984 ft | 131 kts | 58° |
| 2026-05-09 08:59 | 57.24056 | 65.50446 | 1991 ft | 137 kts | 58° |
| 2026-05-09 08:59 | 57.24547 | 65.51967 | 1998 ft | 139 kts | 58° |
| 2026-05-09 09:00 | 57.25046 | 65.53508 | 1999 ft | 140 kts | 58° |
| 2026-05-09 09:00 | 57.25545 | 65.55047 | 2000 ft | 141 kts | 58° |
| 2026-05-09 09:00 | 57.26049 | 65.56603 | 2002 ft | 140 kts | 59° |
| 2026-05-09 09:00 | 57.26382 | 65.57628 | 2000 ft | 141 kts | 58° |
| 2026-05-09 09:01 | 57.27055 | 65.59702 | 1999 ft | 141 kts | 59° |
| 2026-05-09 09:01 | 57.27560 | 65.61254 | 1998 ft | 141 kts | 59° |
| 2026-05-09 09:01 | 57.27891 | 65.62277 | 1998 ft | 140 kts | 59° |
| 2026-05-09 09:01 | 57.28390 | 65.63822 | 1999 ft | 140 kts | 59° |
| 2026-05-09 09:02 | 57.28889 | 65.65366 | 2004 ft | 140 kts | 59° |
| 2026-05-09 09:02 | 57.29387 | 65.66909 | 2000 ft | 140 kts | 59° |
| 2026-05-09 09:02 | 57.30051 | 65.68963 | 2004 ft | 140 kts | 58° |
| 2026-05-09 09:02 | 57.30391 | 65.70009 | 2005 ft | 141 kts | 58° |
| 2026-05-09 09:03 | 57.30893 | 65.71557 | 2000 ft | 140 kts | 59° |
| 2026-05-09 09:03 | 57.31388 | 65.73089 | 2000 ft | 140 kts | 59° |
| 2026-05-09 09:03 | 57.31893 | 65.74656 | 1998 ft | 140 kts | 59° |
| 2026-05-09 09:03 | 57.32393 | 65.76208 | 2000 ft | 140 kts | 59° |
| 2026-05-09 09:04 | 57.32891 | 65.77754 | 1999 ft | 141 kts | 59° |
| 2026-05-09 09:04 | 57.33389 | 65.79304 | 2000 ft | 140 kts | 59° |
| 2026-05-09 09:04 | 57.33887 | 65.80852 | 2000 ft | 139 kts | 59° |
| 2026-05-09 09:04 | 57.34383 | 65.82395 | 1999 ft | 140 kts | 59° |
| 2026-05-09 09:05 | 57.34877 | 65.83935 | 2001 ft | 139 kts | 59° |
| 2026-05-09 09:05 | 57.35373 | 65.85478 | 2000 ft | 139 kts | 59° |
| 2026-05-09 09:05 | 57.35864 | 65.87007 | 1997 ft | 140 kts | 59° |
| 2026-05-09 09:05 | 57.36361 | 65.88554 | 2000 ft | 140 kts | 59° |
| 2026-05-09 09:06 | 57.36856 | 65.90101 | 2001 ft | 140 kts | 59° |
| 2026-05-09 09:06 | 57.37354 | 65.91653 | 2000 ft | 140 kts | 59° |
| 2026-05-09 09:06 | 57.37851 | 65.93203 | 2001 ft | 140 kts | 59° |
| 2026-05-09 09:06 | 57.38349 | 65.94756 | 2001 ft | 140 kts | 59° |
| 2026-05-09 09:07 | 57.38847 | 65.96308 | 2000 ft | 139 kts | 59° |
| 2026-05-09 09:07 | 57.39346 | 65.97864 | 2004 ft | 141 kts | 59° |
| 2026-05-09 09:07 | 57.39848 | 65.99426 | 1999 ft | 141 kts | 59° |
| 2026-05-09 09:07 | 57.40348 | 66.00982 | 2003 ft | 141 kts | 58° |
| 2026-05-09 09:08 | 57.40852 | 66.02539 | 2003 ft | 140 kts | 58° |
| 2026-05-09 09:08 | 57.41350 | 66.04087 | 2008 ft | 140 kts | 58° |
| 2026-05-09 09:08 | 57.41848 | 66.05636 | 1999 ft | 140 kts | 59° |
| 2026-05-09 09:08 | 57.42343 | 66.07184 | 1998 ft | 140 kts | 59° |
| 2026-05-09 09:09 | 57.42841 | 66.08738 | 2000 ft | 140 kts | 59° |
| 2026-05-09 09:09 | 57.43336 | 66.10291 | 2001 ft | 140 kts | 59° |
| 2026-05-09 09:09 | 57.43826 | 66.11828 | 1999 ft | 140 kts | 59° |
| 2026-05-09 09:09 | 57.44325 | 66.13389 | 2000 ft | 141 kts | 59° |
| 2026-05-09 09:10 | 57.44824 | 66.14953 | 1998 ft | 141 kts | 59° |
| 2026-05-09 09:10 | 57.45320 | 66.16509 | 2000 ft | 140 kts | 59° |
| 2026-05-09 09:10 | 57.45854 | 66.18021 | 2000 ft | 139 kts | 53° |
| 2026-05-09 09:10 | 57.46478 | 66.19395 | 1999 ft | 139 kts | 46° |
| 2026-05-09 09:11 | 57.47177 | 66.20638 | 2002 ft | 139 kts | 41° |
| 2026-05-09 09:11 | 57.47925 | 66.21770 | 1999 ft | 139 kts | 37° |
| 2026-05-09 09:11 | 57.48708 | 66.22825 | 2001 ft | 139 kts | 34° |
| 2026-05-09 09:11 | 57.49512 | 66.23819 | 2002 ft | 139 kts | 32° |
| 2026-05-09 09:12 | 57.50335 | 66.24778 | 2000 ft | 140 kts | 31° |
| 2026-05-09 09:12 | 57.51170 | 66.25711 | 2002 ft | 140 kts | 30° |
| 2026-05-09 09:12 | 57.52011 | 66.26624 | 2000 ft | 140 kts | 29° |
| 2026-05-09 09:12 | 57.52853 | 66.27520 | 1999 ft | 139 kts | 29° |
| 2026-05-09 09:13 | 57.53697 | 66.28406 | 1999 ft | 139 kts | 28° |
| 2026-05-09 09:13 | 57.54543 | 66.29285 | 2000 ft | 139 kts | 28° |
| 2026-05-09 09:13 | 57.55379 | 66.30148 | 2000 ft | 139 kts | 28° |
| 2026-05-09 09:13 | 57.56224 | 66.31018 | 2005 ft | 139 kts | 28° |
| 2026-05-09 09:14 | 57.57075 | 66.31886 | 2001 ft | 140 kts | 28° |
| 2026-05-09 09:14 | 57.57933 | 66.32758 | 2002 ft | 140 kts | 28° |
| 2026-05-09 09:14 | 57.58766 | 66.33602 | 2039 ft | 125 kts | 27° |
| 2026-05-09 09:14 | 57.59423 | 66.34242 | 2024 ft | 90 kts | 29° |
| 2026-05-09 09:15 | 57.59919 | 66.34731 | 1999 ft | 79 kts | 29° |
| 2026-05-09 09:15 | 57.60394 | 66.35208 | 2005 ft | 70 kts | 28° |
| 2026-05-09 09:15 | 57.60766 | 66.35581 | 1999 ft | 54 kts | 30° |
| 2026-05-09 09:15 | 57.61097 | 66.35926 | 1999 ft | 55 kts | 34° |
| 2026-05-09 09:16 | 57.61261 | 66.36557 | 1999 ft | 56 kts | 91° |
| 2026-05-09 09:16 | 57.60885 | 66.37978 | 1993 ft | 81 kts | 120° |
| 2026-05-09 09:16 | 57.60555 | 66.39050 | 1986 ft | 109 kts | 119° |
| 2026-05-09 09:17 | 57.60152 | 66.40382 | 1994 ft | 128 kts | 118° |
| 2026-05-09 09:17 | 57.59716 | 66.41894 | 1998 ft | 133 kts | 117° |
| 2026-05-09 09:17 | 57.59297 | 66.43417 | 2004 ft | 131 kts | 116° |
| 2026-05-09 09:17 | 57.58889 | 66.44939 | 1996 ft | 132 kts | 117° |
| 2026-05-09 09:18 | 57.58482 | 66.46480 | 2003 ft | 131 kts | 116° |
| 2026-05-09 09:18 | 57.58082 | 66.48010 | 2000 ft | 132 kts | 116° |
| 2026-05-09 09:18 | 57.57683 | 66.49546 | 1997 ft | 132 kts | 116° |
| 2026-05-09 09:18 | 57.57283 | 66.51088 | 2002 ft | 132 kts | 116° |
| 2026-05-09 09:19 | 57.56887 | 66.52627 | 2000 ft | 132 kts | 116° |
| 2026-05-09 09:19 | 57.56489 | 66.54168 | 1998 ft | 132 kts | 116° |
| 2026-05-09 09:19 | 57.56092 | 66.55709 | 2000 ft | 132 kts | 116° |
| 2026-05-09 09:19 | 57.55701 | 66.57232 | 2000 ft | 132 kts | 116° |
| 2026-05-09 09:20 | 57.55305 | 66.58771 | 2001 ft | 132 kts | 116° |
| 2026-05-09 09:20 | 57.54912 | 66.60302 | 2001 ft | 132 kts | 116° |
| 2026-05-09 09:20 | 57.54516 | 66.61854 | 2005 ft | 131 kts | 116° |
| 2026-05-09 09:20 | 57.54127 | 66.63388 | 1999 ft | 131 kts | 116° |
| 2026-05-09 09:21 | 57.53732 | 66.64925 | 2000 ft | 132 kts | 116° |
| 2026-05-09 09:21 | 57.53336 | 66.66465 | 1998 ft | 132 kts | 116° |
| 2026-05-09 09:21 | 57.52944 | 66.67999 | 2000 ft | 132 kts | 117° |
| 2026-05-09 09:21 | 57.52552 | 66.69534 | 2002 ft | 131 kts | 116° |
| 2026-05-09 09:22 | 57.52159 | 66.71071 | 2003 ft | 131 kts | 116° |
| 2026-05-09 09:22 | 57.51767 | 66.72598 | 1995 ft | 131 kts | 116° |
| 2026-05-09 09:22 | 57.51368 | 66.74135 | 1997 ft | 132 kts | 116° |
| 2026-05-09 09:22 | 57.50969 | 66.75674 | 2001 ft | 132 kts | 116° |
| 2026-05-09 09:23 | 57.50572 | 66.77211 | 2001 ft | 131 kts | 116° |
| 2026-05-09 09:23 | 57.50181 | 66.78725 | 2000 ft | 132 kts | 116° |
| 2026-05-09 09:23 | 57.49780 | 66.80279 | 1998 ft | 131 kts | 116° |
| 2026-05-09 09:23 | 57.49390 | 66.81792 | 2004 ft | 131 kts | 116° |
| 2026-05-09 09:24 | 57.48995 | 66.83324 | 2002 ft | 131 kts | 116° |
| 2026-05-09 09:24 | 57.48598 | 66.84857 | 1997 ft | 132 kts | 116° |
| 2026-05-09 09:24 | 57.48198 | 66.86392 | 1998 ft | 132 kts | 116° |
| 2026-05-09 09:24 | 57.47798 | 66.87926 | 1998 ft | 132 kts | 116° |
| 2026-05-09 09:25 | 57.47430 | 66.89373 | 2037 ft | 108 kts | 116° |
| 2026-05-09 09:25 | 57.47257 | 66.90500 | 2017 ft | 80 kts | 78° |
| 2026-05-09 09:25 | 57.47640 | 66.90804 | 2008 ft | 62 kts | 326° |
| 2026-05-09 09:25 | 57.47997 | 66.90374 | 2006 ft | 68 kts | 331° |
| 2026-05-09 09:26 | 57.48432 | 66.89965 | 1993 ft | 77 kts | 333° |
| 2026-05-09 09:26 | 57.49000 | 66.89458 | 1987 ft | 104 kts | 332° |
| 2026-05-09 09:26 | 57.49729 | 66.88826 | 1984 ft | 125 kts | 333° |
| 2026-05-09 09:26 | 57.50562 | 66.88130 | 2003 ft | 134 kts | 333° |
| 2026-05-09 09:27 | 57.51411 | 66.87425 | 1999 ft | 134 kts | 335° |
| 2026-05-09 09:27 | 57.52265 | 66.86720 | 2006 ft | 133 kts | 335° |
| 2026-05-09 09:27 | 57.53100 | 66.86035 | 1999 ft | 133 kts | 336° |
| 2026-05-09 09:27 | 57.53953 | 66.85343 | 2002 ft | 133 kts | 336° |
| 2026-05-09 09:28 | 57.54804 | 66.84656 | 2001 ft | 133 kts | 336° |
| 2026-05-09 09:28 | 57.55660 | 66.83974 | 1998 ft | 134 kts | 336° |
| 2026-05-09 09:28 | 57.56520 | 66.83292 | 1998 ft | 134 kts | 336° |
| 2026-05-09 09:28 | 57.57378 | 66.82608 | 2003 ft | 134 kts | 336° |
| 2026-05-09 09:29 | 57.58233 | 66.81923 | 2003 ft | 133 kts | 336° |
| 2026-05-09 09:29 | 57.59086 | 66.81242 | 1997 ft | 133 kts | 336° |
| 2026-05-09 09:29 | 57.59943 | 66.80561 | 1999 ft | 134 kts | 336° |
| 2026-05-09 09:29 | 57.60800 | 66.79878 | 2003 ft | 134 kts | 336° |
| 2026-05-09 09:30 | 57.61652 | 66.79199 | 1997 ft | 134 kts | 336° |
| 2026-05-09 09:30 | 57.62510 | 66.78519 | 2001 ft | 134 kts | 336° |
| 2026-05-09 09:30 | 57.63363 | 66.77841 | 1999 ft | 134 kts | 336° |
| 2026-05-09 09:30 | 57.64222 | 66.77159 | 2002 ft | 134 kts | 336° |
| 2026-05-09 09:31 | 57.65073 | 66.76477 | 1996 ft | 133 kts | 336° |
| 2026-05-09 09:31 | 57.65930 | 66.75798 | 1997 ft | 134 kts | 336° |
| 2026-05-09 09:31 | 57.66788 | 66.75116 | 1998 ft | 134 kts | 336° |
| 2026-05-09 09:32 | 57.68489 | 66.73758 | 1999 ft | 133 kts | 336° |
| 2026-05-09 09:32 | 57.69345 | 66.73077 | 1999 ft | 134 kts | 336° |
| 2026-05-09 09:32 | 57.70203 | 66.72393 | 2004 ft | 134 kts | 336° |
| 2026-05-09 09:32 | 57.71054 | 66.71708 | 2006 ft | 133 kts | 335° |
| 2026-05-09 09:33 | 57.71907 | 66.71026 | 1998 ft | 134 kts | 336° |
| 2026-05-09 09:33 | 57.72765 | 66.70340 | 1997 ft | 134 kts | 336° |
| 2026-05-09 09:33 | 57.73622 | 66.69658 | 1999 ft | 134 kts | 336° |
| 2026-05-09 09:33 | 57.74462 | 66.68979 | 2030 ft | 121 kts | 335° |
| 2026-05-09 09:34 | 57.75126 | 66.68421 | 2004 ft | 95 kts | 337° |
| 2026-05-09 09:34 | 57.75754 | 66.67912 | 2001 ft | 100 kts | 336° |
| 2026-05-09 09:34 | 57.76435 | 66.67829 | 2008 ft | 97 kts | 17° |
| 2026-05-09 09:36 | 57.79240 | 66.75397 | 1997 ft | 133 kts | 54° |
| 2026-05-09 09:36 | 57.79778 | 66.76816 | 1999 ft | 133 kts | 54° |
| 2026-05-09 09:36 | 57.80321 | 66.78230 | 1999 ft | 133 kts | 53° |
| 2026-05-09 09:37 | 57.80866 | 66.79642 | 1999 ft | 134 kts | 53° |
| 2026-05-09 09:37 | 57.81411 | 66.81048 | 1998 ft | 133 kts | 53° |
| 2026-05-09 09:37 | 57.81959 | 66.82457 | 2004 ft | 133 kts | 53° |
| 2026-05-09 09:37 | 57.82500 | 66.83838 | 1998 ft | 133 kts | 53° |
| 2026-05-09 09:38 | 57.83050 | 66.85243 | 2004 ft | 133 kts | 53° |
| 2026-05-09 09:38 | 57.83598 | 66.86645 | 2000 ft | 133 kts | 53° |
| 2026-05-09 09:38 | 57.84146 | 66.88042 | 1997 ft | 132 kts | 53° |
| 2026-05-09 09:38 | 57.84693 | 66.89443 | 1998 ft | 133 kts | 53° |
| 2026-05-09 09:39 | 57.85242 | 66.90842 | 2002 ft | 132 kts | 53° |
| 2026-05-09 09:39 | 57.85782 | 66.92225 | 1998 ft | 133 kts | 53° |
| 2026-05-09 09:39 | 57.86335 | 66.93648 | 1999 ft | 133 kts | 53° |
| 2026-05-09 09:39 | 57.86876 | 66.95036 | 1999 ft | 133 kts | 53° |
| 2026-05-09 09:40 | 57.87424 | 66.96445 | 1998 ft | 133 kts | 53° |
| 2026-05-09 09:40 | 57.87972 | 66.97853 | 2006 ft | 133 kts | 53° |
| 2026-05-09 09:40 | 57.88522 | 66.99251 | 2001 ft | 132 kts | 53° |
| 2026-05-09 09:40 | 57.89068 | 67.00654 | 1997 ft | 134 kts | 53° |
| 2026-05-09 09:41 | 57.89615 | 67.02066 | 1999 ft | 133 kts | 53° |
| 2026-05-09 09:41 | 57.90162 | 67.03478 | 1999 ft | 133 kts | 53° |
| 2026-05-09 09:41 | 57.90711 | 67.04891 | 2001 ft | 133 kts | 53° |
| 2026-05-09 09:41 | 57.91252 | 67.06286 | 1998 ft | 133 kts | 53° |
| 2026-05-09 09:42 | 57.91798 | 67.07694 | 2002 ft | 133 kts | 53° |
| 2026-05-09 09:42 | 57.92347 | 67.09102 | 2000 ft | 133 kts | 53° |
| 2026-05-09 09:42 | 57.92890 | 67.10502 | 2012 ft | 129 kts | 53° |
| 2026-05-09 09:42 | 57.93356 | 67.11669 | 2018 ft | 94 kts | 54° |
| 2026-05-09 09:43 | 57.93692 | 67.12504 | 2010 ft | 68 kts | 55° |
| 2026-05-09 09:43 | 57.93936 | 67.13120 | 1998 ft | 51 kts | 56° |
| 2026-05-09 09:43 | 57.94147 | 67.13661 | 1999 ft | 52 kts | 53° |
| 2026-05-09 09:43 | 57.94360 | 67.14209 | 2000 ft | 52 kts | 53° |
| 2026-05-09 09:44 | 57.94571 | 67.14752 | 2000 ft | 52 kts | 52° |
| 2026-05-09 09:44 | 57.94785 | 67.15303 | 2000 ft | 52 kts | 52° |
| 2026-05-09 09:44 | 57.94998 | 67.15853 | 2000 ft | 52 kts | 52° |
| 2026-05-09 09:44 | 57.95263 | 67.16291 | 2000 ft | 51 kts | 17° |
| 2026-05-09 09:45 | 57.95599 | 67.16219 | 2002 ft | 49 kts | 324° |
| 2026-05-09 09:45 | 57.95647 | 67.15675 | 2002 ft | 48 kts | 236° |
| 2026-05-09 09:45 | 57.95541 | 67.15085 | 1996 ft | 51 kts | 265° |
| 2026-05-09 09:45 | 57.95501 | 67.14221 | 1996 ft | 80 kts | 264° |
| 2026-05-09 09:46 | 57.95457 | 67.13008 | 1989 ft | 105 kts | 266° |
| 2026-05-09 09:46 | 57.95422 | 67.11490 | 1984 ft | 125 kts | 267° |
| 2026-05-09 09:46 | 57.95401 | 67.09823 | 1996 ft | 129 kts | 268° |
| 2026-05-09 09:46 | 57.95391 | 67.08692 | 1997 ft | 128 kts | 269° |
| 2026-05-09 09:47 | 57.95384 | 67.06479 | 1998 ft | 128 kts | 270° |
| 2026-05-09 09:47 | 57.95387 | 67.04804 | 1999 ft | 128 kts | 270° |
| 2026-05-09 09:47 | 57.95392 | 67.03673 | 2003 ft | 128 kts | 270° |
| 2026-05-09 09:47 | 57.95404 | 67.01463 | 1997 ft | 127 kts | 271° |
| 2026-05-09 09:48 | 57.95420 | 66.99787 | 2000 ft | 128 kts | 271° |
| 2026-05-09 09:48 | 57.95431 | 66.98676 | 2000 ft | 128 kts | 271° |
| 2026-05-09 09:48 | 57.95449 | 66.97004 | 2000 ft | 128 kts | 271° |
| 2026-05-09 09:48 | 57.95465 | 66.95337 | 1998 ft | 127 kts | 271° |
| 2026-05-09 09:49 | 57.95485 | 66.93669 | 1996 ft | 128 kts | 271° |
| 2026-05-09 09:49 | 57.95506 | 66.91994 | 1999 ft | 128 kts | 271° |
| 2026-05-09 09:49 | 57.95527 | 66.90319 | 1999 ft | 128 kts | 271° |
| 2026-05-09 09:49 | 57.95546 | 66.88649 | 2001 ft | 127 kts | 271° |
| 2026-05-09 09:50 | 57.95566 | 66.86976 | 2000 ft | 128 kts | 271° |
| 2026-05-09 09:50 | 57.95587 | 66.85297 | 2000 ft | 128 kts | 271° |
| 2026-05-09 09:50 | 57.95607 | 66.83624 | 2000 ft | 128 kts | 271° |
| 2026-05-09 09:50 | 57.95627 | 66.81972 | 1998 ft | 128 kts | 271° |
| 2026-05-09 09:51 | 57.95647 | 66.80307 | 2000 ft | 128 kts | 271° |
| 2026-05-09 09:51 | 57.95667 | 66.78621 | 2000 ft | 128 kts | 271° |
| 2026-05-09 09:51 | 57.95686 | 66.76947 | 2000 ft | 128 kts | 271° |
| 2026-05-09 09:51 | 57.95705 | 66.75281 | 2000 ft | 128 kts | 271° |
| 2026-05-09 09:52 | 57.95724 | 66.73598 | 2002 ft | 128 kts | 271° |
| 2026-05-09 09:52 | 57.95741 | 66.71933 | 2005 ft | 127 kts | 272° |
| 2026-05-09 09:52 | 57.95756 | 66.70262 | 2004 ft | 127 kts | 271° |
| 2026-05-09 09:52 | 57.95773 | 66.68598 | 1998 ft | 128 kts | 271° |
| 2026-05-09 09:53 | 57.95791 | 66.66926 | 1998 ft | 127 kts | 271° |
| 2026-05-09 09:53 | 57.95810 | 66.65275 | 1997 ft | 128 kts | 271° |
| 2026-05-09 09:53 | 57.95828 | 66.63597 | 1998 ft | 128 kts | 271° |
| 2026-05-09 09:53 | 57.95842 | 66.61965 | 2028 ft | 114 kts | 270° |
| 2026-05-09 09:54 | 57.95841 | 66.60698 | 2020 ft | 80 kts | 272° |
| 2026-05-09 09:54 | 57.95840 | 66.59809 | 2007 ft | 57 kts | 275° |
| 2026-05-09 09:54 | 57.95843 | 66.59157 | 1993 ft | 47 kts | 274° |
| 2026-05-09 09:54 | 57.95849 | 66.58529 | 1999 ft | 48 kts | 271° |
| 2026-05-09 09:55 | 57.95855 | 66.57898 | 1999 ft | 48 kts | 271° |
| 2026-05-09 09:55 | 57.95862 | 66.57265 | 1999 ft | 48 kts | 271° |
| 2026-05-09 09:55 | 57.95870 | 66.56641 | 1999 ft | 48 kts | 275° |
| 2026-05-09 09:55 | 57.96052 | 66.56129 | 1999 ft | 49 kts | 328° |
| 2026-05-09 09:56 | 57.96389 | 66.55886 | 1993 ft | 60 kts | 339° |
| 2026-05-09 09:56 | 57.96865 | 66.55565 | 1989 ft | 87 kts | 338° |
| 2026-05-09 09:56 | 57.97521 | 66.55122 | 1985 ft | 112 kts | 338° |
| 2026-05-09 09:56 | 57.98263 | 66.54608 | 2003 ft | 112 kts | 338° |
| 2026-05-09 09:57 | 57.99001 | 66.54076 | 2003 ft | 112 kts | 338° |
| 2026-05-09 09:57 | 57.99719 | 66.53553 | 1997 ft | 112 kts | 338° |
| 2026-05-09 09:57 | 58.00445 | 66.53018 | 1998 ft | 112 kts | 338° |
| 2026-05-09 09:57 | 58.01171 | 66.52476 | 2006 ft | 112 kts | 337° |
| 2026-05-09 09:58 | 58.01891 | 66.51929 | 2003 ft | 111 kts | 337° |
| 2026-05-09 09:58 | 58.02612 | 66.51380 | 2000 ft | 111 kts | 337° |
| 2026-05-09 09:58 | 58.03333 | 66.50834 | 1997 ft | 112 kts | 337° |
| 2026-05-09 09:58 | 58.04057 | 66.50285 | 1999 ft | 112 kts | 337° |
| 2026-05-09 09:59 | 58.04783 | 66.49731 | 2006 ft | 112 kts | 336° |
| 2026-05-09 09:59 | 58.05500 | 66.49176 | 2000 ft | 111 kts | 336° |
| 2026-05-09 09:59 | 58.06218 | 66.48622 | 1998 ft | 111 kts | 337° |
| 2026-05-09 09:59 | 58.06937 | 66.48068 | 1996 ft | 112 kts | 337° |
| 2026-05-09 10:00 | 58.07650 | 66.47523 | 1998 ft | 112 kts | 337° |
| 2026-05-09 10:00 | 58.08374 | 66.46969 | 2000 ft | 112 kts | 337° |
| 2026-05-09 10:00 | 58.09096 | 66.46413 | 2000 ft | 112 kts | 337° |
| 2026-05-09 10:00 | 58.09816 | 66.45859 | 2000 ft | 112 kts | 337° |
| 2026-05-09 10:01 | 58.10536 | 66.45299 | 2004 ft | 111 kts | 336° |
| 2026-05-09 10:01 | 58.11251 | 66.44741 | 1997 ft | 111 kts | 337° |
| 2026-05-09 10:01 | 58.11972 | 66.44188 | 1997 ft | 112 kts | 337° |
| 2026-05-09 10:01 | 58.12698 | 66.43630 | 2000 ft | 112 kts | 337° |
| 2026-05-09 10:02 | 58.13417 | 66.43074 | 1999 ft | 111 kts | 337° |
| 2026-05-09 10:02 | 58.14126 | 66.42524 | 2005 ft | 112 kts | 336° |
| 2026-05-09 10:02 | 58.14844 | 66.41964 | 2003 ft | 111 kts | 336° |
| 2026-05-09 10:02 | 58.15558 | 66.41407 | 1996 ft | 111 kts | 337° |
| 2026-05-09 10:03 | 58.16280 | 66.40854 | 1997 ft | 112 kts | 337° |
| 2026-05-09 10:03 | 58.17013 | 66.40291 | 1999 ft | 112 kts | 337° |
| 2026-05-09 10:03 | 58.17724 | 66.39741 | 2006 ft | 112 kts | 336° |
| 2026-05-09 10:03 | 58.18440 | 66.39180 | 1995 ft | 111 kts | 337° |
| 2026-05-09 10:04 | 58.19160 | 66.38625 | 1998 ft | 112 kts | 337° |
| 2026-05-09 10:04 | 58.19840 | 66.38094 | 2018 ft | 92 kts | 337° |
| 2026-05-09 10:04 | 58.20340 | 66.37691 | 2006 ft | 66 kts | 338° |
| 2026-05-09 10:04 | 58.20699 | 66.37405 | 2001 ft | 47 kts | 338° |
| 2026-05-09 10:05 | 58.20961 | 66.37198 | 1999 ft | 37 kts | 338° |
| 2026-05-09 10:05 | 58.21200 | 66.37021 | 2000 ft | 37 kts | 337° |
| 2026-05-09 10:05 | 58.21440 | 66.36855 | 1999 ft | 37 kts | 337° |
| 2026-05-09 10:05 | 58.21686 | 66.36690 | 1999 ft | 38 kts | 337° |
| 2026-05-09 10:06 | 58.21927 | 66.36503 | 2004 ft | 37 kts | 320° |
| 2026-05-09 10:06 | 58.22081 | 66.36138 | 2002 ft | 36 kts | 284° |
| 2026-05-09 10:06 | 58.22097 | 66.35677 | 2000 ft | 36 kts | 252° |
| 2026-05-09 10:06 | 58.21971 | 66.35274 | 2000 ft | 36 kts | 219° |
| 2026-05-09 10:07 | 58.21744 | 66.35059 | 2000 ft | 38 kts | 189° |
| 2026-05-09 10:07 | 58.21387 | 66.34944 | 1994 ft | 67 kts | 189° |
| 2026-05-09 10:07 | 58.20829 | 66.34749 | 1990 ft | 95 kts | 191° |
| 2026-05-09 10:07 | 58.20103 | 66.34450 | 1997 ft | 115 kts | 192° |
| 2026-05-09 10:08 | 58.19340 | 66.34103 | 2003 ft | 111 kts | 194° |
| 2026-05-09 10:08 | 58.18604 | 66.33732 | 2002 ft | 111 kts | 196° |
| 2026-05-09 10:08 | 58.17863 | 66.33327 | 2000 ft | 111 kts | 197° |
| 2026-05-09 10:08 | 58.17123 | 66.32897 | 2001 ft | 111 kts | 198° |
| 2026-05-09 10:09 | 58.16387 | 66.32451 | 1998 ft | 111 kts | 199° |
| 2026-05-09 10:09 | 58.15652 | 66.31989 | 2001 ft | 111 kts | 199° |
| 2026-05-09 10:09 | 58.14921 | 66.31521 | 2001 ft | 111 kts | 200° |
| 2026-05-09 10:09 | 58.14191 | 66.31046 | 2003 ft | 111 kts | 200° |
| 2026-05-09 10:10 | 58.13461 | 66.30567 | 1999 ft | 111 kts | 200° |
| 2026-05-09 10:10 | 58.12732 | 66.30078 | 1999 ft | 111 kts | 200° |
| 2026-05-09 10:10 | 58.12003 | 66.29586 | 2000 ft | 111 kts | 201° |
| 2026-05-09 10:10 | 58.11274 | 66.29091 | 2000 ft | 111 kts | 200° |
| 2026-05-09 10:11 | 58.10546 | 66.28597 | 2000 ft | 111 kts | 201° |
| 2026-05-09 10:11 | 58.09818 | 66.28102 | 2002 ft | 111 kts | 200° |
| 2026-05-09 10:11 | 58.09090 | 66.27607 | 1999 ft | 111 kts | 201° |
| 2026-05-09 10:11 | 58.08372 | 66.27118 | 2005 ft | 111 kts | 200° |
| 2026-05-09 10:12 | 58.07649 | 66.26625 | 1998 ft | 111 kts | 201° |
| 2026-05-09 10:12 | 58.06922 | 66.26125 | 2000 ft | 111 kts | 201° |
| 2026-05-09 10:12 | 58.06195 | 66.25627 | 2000 ft | 111 kts | 201° |
| 2026-05-09 10:12 | 58.05467 | 66.25130 | 2003 ft | 111 kts | 201° |
| 2026-05-09 10:13 | 58.04741 | 66.24634 | 1999 ft | 111 kts | 201° |
| 2026-05-09 10:13 | 58.04014 | 66.24136 | 2001 ft | 111 kts | 201° |
| 2026-05-09 10:13 | 58.03290 | 66.23640 | 1998 ft | 111 kts | 201° |
| 2026-05-09 10:13 | 58.02563 | 66.23142 | 2000 ft | 111 kts | 201° |
| 2026-05-09 10:14 | 58.01838 | 66.22647 | 2001 ft | 111 kts | 201° |
| 2026-05-09 10:14 | 58.01111 | 66.22151 | 1998 ft | 111 kts | 201° |
| 2026-05-09 10:14 | 58.00385 | 66.21654 | 2000 ft | 111 kts | 201° |
| 2026-05-09 10:14 | 57.99659 | 66.21158 | 2000 ft | 111 kts | 201° |
| 2026-05-09 10:15 | 57.98943 | 66.20671 | 2000 ft | 111 kts | 201° |
| 2026-05-09 10:15 | 57.98218 | 66.20176 | 2001 ft | 111 kts | 201° |
| 2026-05-09 10:15 | 57.97495 | 66.19684 | 2001 ft | 111 kts | 201° |
| 2026-05-09 10:15 | 57.96769 | 66.19190 | 2000 ft | 111 kts | 201° |
| 2026-05-09 10:16 | 57.96044 | 66.18694 | 2000 ft | 111 kts | 201° |
| 2026-05-09 10:16 | 57.95331 | 66.18212 | 2015 ft | 100 kts | 200° |
| 2026-05-09 10:16 | 57.94774 | 66.17851 | 2007 ft | 71 kts | 203° |
| 2026-05-09 10:16 | 57.94379 | 66.17594 | 2003 ft | 51 kts | 205° |
| 2026-05-09 10:17 | 57.94160 | 66.17244 | 1998 ft | 38 kts | 250° |
| 2026-05-09 10:17 | 57.94129 | 66.16746 | 2000 ft | 39 kts | 273° |
| 2026-05-09 10:17 | 57.94144 | 66.16206 | 1995 ft | 49 kts | 274° |
| 2026-05-09 10:17 | 57.94171 | 66.15374 | 1994 ft | 77 kts | 272° |
| 2026-05-09 10:18 | 57.94209 | 66.14211 | 1989 ft | 102 kts | 272° |
| 2026-05-09 10:18 | 57.94254 | 66.12743 | 1987 ft | 122 kts | 272° |
| 2026-05-09 10:18 | 57.94294 | 66.11148 | 2001 ft | 120 kts | 271° |
| 2026-05-09 10:18 | 57.94325 | 66.09578 | 1996 ft | 120 kts | 272° |
| 2026-05-09 10:19 | 57.94353 | 66.07995 | 2001 ft | 121 kts | 271° |
| 2026-05-09 10:19 | 57.94376 | 66.06420 | 1999 ft | 120 kts | 271° |
| 2026-05-09 10:19 | 57.94397 | 66.04843 | 2001 ft | 120 kts | 271° |
| 2026-05-09 10:19 | 57.94415 | 66.03267 | 1998 ft | 120 kts | 271° |
| 2026-05-09 10:20 | 57.94435 | 66.01682 | 1999 ft | 121 kts | 271° |
| 2026-05-09 10:20 | 57.94454 | 66.00098 | 2000 ft | 121 kts | 271° |
| 2026-05-09 10:20 | 57.94471 | 65.98519 | 2001 ft | 121 kts | 271° |
| 2026-05-09 10:20 | 57.94488 | 65.96936 | 1999 ft | 121 kts | 271° |
| 2026-05-09 10:21 | 57.94502 | 65.95353 | 2004 ft | 120 kts | 271° |
| 2026-05-09 10:21 | 57.94515 | 65.93796 | 1996 ft | 121 kts | 271° |
| 2026-05-09 10:21 | 57.94532 | 65.92211 | 2002 ft | 121 kts | 271° |
| 2026-05-09 10:21 | 57.94545 | 65.90629 | 2000 ft | 120 kts | 271° |
| 2026-05-09 10:22 | 57.94558 | 65.89047 | 1999 ft | 121 kts | 271° |
| 2026-05-09 10:22 | 57.94571 | 65.87465 | 2001 ft | 121 kts | 271° |
| 2026-05-09 10:22 | 57.94583 | 65.85884 | 2001 ft | 120 kts | 271° |
| 2026-05-09 10:22 | 57.94596 | 65.84321 | 2001 ft | 121 kts | 271° |
| 2026-05-09 10:23 | 57.94608 | 65.82741 | 2000 ft | 121 kts | 271° |
| 2026-05-09 10:23 | 57.94620 | 65.81161 | 2002 ft | 120 kts | 270° |
| 2026-05-09 10:23 | 57.94631 | 65.79579 | 2000 ft | 120 kts | 271° |
| 2026-05-09 10:23 | 57.94642 | 65.78006 | 1999 ft | 120 kts | 271° |
| 2026-05-09 10:24 | 57.94655 | 65.76422 | 1997 ft | 121 kts | 271° |
| 2026-05-09 10:24 | 57.94667 | 65.74838 | 2000 ft | 121 kts | 271° |
| 2026-05-09 10:24 | 57.94679 | 65.73276 | 2001 ft | 121 kts | 271° |
| 2026-05-09 10:24 | 57.94690 | 65.71693 | 2000 ft | 121 kts | 271° |
| 2026-05-09 10:25 | 57.94700 | 65.70113 | 2000 ft | 121 kts | 271° |
| 2026-05-09 10:25 | 57.94707 | 65.68584 | 2023 ft | 105 kts | 270° |
| 2026-05-09 10:25 | 57.94704 | 65.67434 | 2011 ft | 73 kts | 273° |
| 2026-05-09 10:25 | 57.94703 | 65.66630 | 2007 ft | 52 kts | 273° |
| 2026-05-09 10:26 | 57.94702 | 65.66054 | 2002 ft | 38 kts | 270° |
| 2026-05-09 10:26 | 57.94694 | 65.65557 | 2001 ft | 38 kts | 270° |
| 2026-05-09 10:26 | 57.94623 | 65.65080 | 2001 ft | 38 kts | 234° |
| 2026-05-09 10:26 | 57.94403 | 65.64795 | 2001 ft | 40 kts | 196° |
| 2026-05-09 10:27 | 57.94129 | 65.64831 | 2000 ft | 41 kts | 158° |
| 2026-05-09 10:27 | 57.93915 | 65.65181 | 1998 ft | 42 kts | 121° |
| 2026-05-09 10:27 | 57.93769 | 65.65652 | 1997 ft | 42 kts | 121° |
| 2026-05-09 10:27 | 57.93604 | 65.66166 | 1994 ft | 57 kts | 122° |
| 2026-05-09 10:28 | 57.93339 | 65.66955 | 1991 ft | 85 kts | 122° |
| 2026-05-09 10:28 | 57.92960 | 65.68017 | 1986 ft | 109 kts | 124° |
| 2026-05-09 10:28 | 57.92476 | 65.69287 | 1997 ft | 124 kts | 125° |
| 2026-05-09 10:28 | 57.91969 | 65.70573 | 1998 ft | 121 kts | 127° |
| 2026-05-09 10:29 | 57.91451 | 65.71831 | 1998 ft | 122 kts | 128° |
| 2026-05-09 10:29 | 57.90922 | 65.73073 | 1999 ft | 122 kts | 129° |
| 2026-05-09 10:29 | 57.90394 | 65.74287 | 1999 ft | 122 kts | 130° |
| 2026-05-09 10:29 | 57.89849 | 65.75515 | 2000 ft | 122 kts | 130° |
| 2026-05-09 10:30 | 57.89304 | 65.76729 | 2002 ft | 121 kts | 131° |
| 2026-05-09 10:30 | 57.88758 | 65.77935 | 1999 ft | 121 kts | 131° |
| 2026-05-09 10:30 | 57.88207 | 65.79140 | 2001 ft | 121 kts | 131° |
| 2026-05-09 10:30 | 57.87655 | 65.80342 | 2000 ft | 121 kts | 131° |
| 2026-05-09 10:31 | 57.87288 | 65.81138 | 1999 ft | 121 kts | 131° |
| 2026-05-09 10:31 | 57.86735 | 65.82335 | 1999 ft | 121 kts | 132° |
| 2026-05-09 10:31 | 57.86179 | 65.83529 | 2000 ft | 121 kts | 131° |